createdAt,value
2023-04-11T00:48:28.280Z,2.22
2023-04-11T00:51:15.373Z,2.15
2023-04-11T00:54:01.377Z,2.10
2023-04-11T00:56:46.506Z,2.17
2023-04-11T00:59:32.441Z,1.92
2023-04-11T01:46:35.212Z,1.92
2023-04-11T01:49:29.964Z,1.98
2023-04-11T01:52:15.230Z,1.77
2023-04-11T01:55:00.267Z,2.22
2023-04-11T01:57:45.565Z,1.90
2023-04-11T02:46:16.326Z,2.13
2023-04-11T02:49:03.380Z,1.90
2023-04-11T02:51:48.632Z,1.95
2023-04-11T02:54:33.840Z,1.95
2023-04-11T02:57:20.190Z,2.10
2023-04-11T03:47:21.405Z,1.80
2023-04-11T03:50:07.816Z,2.10
2023-04-11T03:52:59.496Z,2.00
2023-04-11T03:55:45.853Z,2.17
2023-04-11T03:58:34.689Z,1.60
2023-04-11T04:48:27.875Z,1.77
2023-04-11T04:51:13.146Z,1.75
2023-04-11T04:53:59.719Z,1.90
2023-04-11T04:56:48.210Z,1.90
2023-04-11T04:59:33.988Z,1.97
2023-04-11T05:02:27.733Z,2.00
2023-04-11T05:05:15.774Z,1.98
2023-04-11T05:08:01.293Z,2.00
2023-04-11T05:10:47.584Z,1.80
2023-04-11T05:13:34.192Z,1.57
2023-04-11T05:16:21.857Z,1.98
2023-04-11T05:19:07.116Z,1.70
2023-04-11T05:21:54.466Z,1.90
2023-04-11T05:24:40.294Z,1.80
2023-04-11T05:27:29.217Z,1.93
2023-04-11T05:30:15.256Z,1.90
2023-04-11T05:33:01.096Z,1.80
2023-04-11T05:35:46.399Z,1.67
2023-04-11T05:38:34.676Z,1.92
2023-04-11T05:41:20.144Z,1.77
2023-04-11T05:44:05.351Z,1.85
2023-04-11T05:46:50.881Z,1.80
2023-04-11T05:49:36.945Z,1.92
2023-04-11T05:52:21.764Z,1.73
2023-04-11T05:55:07.275Z,1.60
2023-04-11T05:57:52.114Z,2.10
2023-04-11T06:00:40.032Z,1.77
2023-04-11T06:03:25.327Z,1.60
2023-04-11T06:06:10.306Z,1.83
2023-04-11T06:08:55.419Z,1.80
2023-04-11T06:11:40.648Z,1.60
2023-04-11T06:14:25.793Z,1.67
2023-04-11T06:17:10.653Z,1.80
2023-04-11T06:19:55.551Z,1.90
2023-04-11T06:22:41.278Z,1.60
2023-04-11T06:25:26.555Z,1.90
2023-04-11T06:28:11.326Z,1.60
2023-04-11T06:30:56.200Z,1.73
2023-04-11T06:33:41.286Z,1.67
2023-04-11T06:36:27.140Z,1.80
2023-04-11T06:39:13.029Z,1.70
2023-04-11T06:41:58.249Z,1.60
2023-04-11T06:44:45.050Z,2.15
2023-04-11T06:47:30.322Z,1.77
2023-04-11T06:50:15.235Z,1.50
2023-04-11T06:53:00.107Z,1.48
2023-04-11T06:55:48.448Z,1.60
2023-04-11T06:58:33.370Z,1.55
2023-04-11T07:01:20.574Z,1.73
2023-04-11T07:04:06.562Z,1.70
2023-04-11T07:06:51.646Z,1.50
2023-04-11T07:09:36.652Z,1.52
2023-04-11T07:12:21.992Z,1.70
2023-04-11T07:15:07.229Z,1.70
2023-04-11T07:17:52.999Z,1.80
2023-04-11T07:20:37.994Z,1.65
2023-04-11T07:23:23.835Z,1.65
2023-04-11T07:26:10.708Z,1.73
2023-04-11T07:28:55.588Z,1.60
2023-04-11T07:31:40.776Z,1.60
2023-04-11T07:34:26.315Z,1.60
2023-04-11T07:37:12.539Z,1.50
2023-04-11T07:39:57.716Z,1.80
2023-04-11T07:42:43.134Z,1.80
2023-04-11T07:45:27.955Z,1.53
2023-04-11T07:48:13.166Z,1.58
2023-04-11T07:50:58.142Z,1.50
2023-04-11T07:53:42.960Z,1.50
2023-04-11T07:56:27.821Z,1.60
2023-04-11T07:59:15.797Z,1.90
2023-04-11T08:02:01.446Z,1.30
2023-04-11T08:04:46.928Z,1.65
2023-04-11T08:07:32.254Z,1.63
2023-04-11T08:10:17.067Z,1.90
2023-04-11T08:13:02.041Z,1.60
2023-04-11T08:15:47.538Z,1.60
2023-04-11T08:18:32.979Z,1.65
2023-04-11T08:21:17.737Z,1.48
2023-04-11T08:24:02.876Z,1.30
2023-04-11T08:26:47.850Z,1.60
2023-04-11T08:29:32.798Z,1.63
2023-04-11T08:32:17.687Z,1.50
2023-04-11T08:35:02.635Z,1.75
2023-04-11T08:37:49.432Z,1.60
2023-04-11T08:40:34.453Z,1.57
2023-04-11T08:43:19.371Z,1.50
2023-04-11T08:46:05.065Z,1.60
2023-04-11T08:48:51.021Z,1.50
2023-04-11T08:51:36.756Z,1.35
2023-04-11T08:54:21.715Z,1.50
2023-04-11T08:57:06.764Z,1.60
2023-04-11T08:59:53.406Z,1.20
2023-04-11T09:03:14.420Z,1.55
2023-04-11T09:06:08.929Z,1.40
2023-04-11T09:08:53.870Z,1.70
2023-04-11T09:11:51.875Z,1.60
2023-04-11T09:14:37.328Z,1.30
2023-04-11T09:17:22.327Z,1.40
2023-04-11T09:20:17.833Z,1.40
2023-04-11T09:23:02.700Z,1.30
2023-04-11T09:25:47.669Z,1.42
2023-04-11T09:28:42.969Z,1.40
2023-04-11T09:31:44.849Z,1.45
2023-04-11T09:34:29.846Z,1.58
2023-04-11T09:37:15.554Z,1.40
2023-04-11T09:40:00.918Z,1.40
2023-04-11T09:42:47.066Z,1.20
2023-04-11T09:45:38.217Z,1.58
2023-04-11T09:48:43.461Z,1.27
2023-04-11T09:51:35.649Z,1.33
2023-04-11T09:54:22.532Z,1.30
2023-04-11T09:57:08.398Z,1.48
2023-04-11T09:59:54.060Z,1.38
2023-04-11T10:02:38.961Z,1.15
2023-04-11T10:05:28.504Z,1.30
2023-04-11T10:08:17.269Z,1.55
2023-04-11T10:11:07.301Z,1.40
2023-04-11T10:13:52.090Z,1.42
2023-04-11T10:16:38.427Z,1.52
2023-04-11T10:19:24.019Z,1.50
2023-04-11T10:22:09.436Z,1.05
2023-04-11T10:25:13.569Z,1.50
2023-04-11T10:28:04.099Z,1.42
2023-04-11T10:30:59.517Z,1.13
2023-04-11T10:34:11.495Z,1.10
2023-04-11T10:37:07.800Z,1.05
2023-04-11T10:40:02.190Z,1.30
2023-04-11T10:42:48.384Z,1.15
2023-04-11T10:45:39.566Z,1.25
2023-04-11T10:48:24.334Z,1.30
2023-04-11T10:51:22.685Z,1.38
2023-04-11T10:54:23.763Z,1.10
2023-04-11T10:57:10.114Z,1.35
2023-04-11T10:59:58.328Z,1.40
2023-04-11T11:02:43.741Z,1.40
2023-04-11T11:05:29.433Z,1.20
2023-04-11T11:08:14.341Z,1.30
2023-04-11T11:11:03.269Z,1.40
2023-04-11T11:13:52.624Z,1.20
2023-04-11T11:16:37.557Z,1.30
2023-04-11T11:19:22.966Z,1.20
2023-04-11T11:22:14.212Z,1.13
2023-04-11T11:25:07.007Z,1.10
2023-04-11T11:28:18.124Z,1.48
2023-04-11T11:31:04.003Z,1.10
2023-04-11T11:33:49.129Z,1.30
2023-04-11T11:36:35.570Z,1.17
2023-04-11T11:39:22.001Z,1.40
2023-04-11T11:42:08.169Z,1.15
2023-04-11T11:44:53.115Z,1.13
2023-04-11T11:47:42.649Z,1.20
2023-04-11T11:50:28.835Z,1.50
2023-04-11T11:53:14.955Z,1.30
2023-04-11T11:56:00.271Z,1.20
2023-04-11T11:58:45.817Z,1.13
2023-04-11T12:01:32.225Z,1.10
2023-04-11T12:04:19.093Z,1.00
2023-04-11T12:07:08.141Z,1.17
2023-04-11T12:10:11.635Z,1.20
2023-04-11T12:12:57.053Z,1.17
2023-04-11T12:15:43.771Z,1.20
2023-04-11T12:18:28.766Z,1.10
2023-04-11T12:21:14.356Z,1.25
2023-04-11T12:23:59.276Z,1.30
2023-04-11T12:27:05.457Z,1.10
2023-04-11T12:29:51.280Z,1.00
2023-04-11T12:32:36.727Z,1.25
2023-04-11T12:35:22.095Z,1.20
2023-04-11T12:38:08.000Z,1.10
2023-04-11T12:41:13.809Z,0.97
2023-04-11T12:44:02.109Z,1.00
2023-04-11T12:46:47.207Z,1.23
2023-04-11T12:49:32.442Z,1.20
2023-04-11T12:52:17.585Z,0.93
2023-04-11T12:55:04.060Z,1.10
2023-04-11T12:57:48.967Z,1.10
2023-04-11T13:00:34.009Z,1.05
2023-04-11T13:03:18.966Z,1.20
2023-04-11T13:06:04.076Z,1.25
2023-04-11T13:08:48.808Z,1.00
2023-04-11T13:11:33.710Z,1.10
2023-04-11T13:14:19.091Z,0.90
2023-04-11T13:17:04.788Z,1.23
2023-04-11T13:19:49.965Z,1.17
2023-04-11T13:22:35.009Z,1.00
2023-04-11T13:25:19.887Z,1.20
2023-04-11T13:28:04.702Z,1.00
2023-04-11T13:30:50.074Z,1.00
2023-04-11T13:33:34.817Z,1.00
2023-04-11T13:36:19.752Z,1.40
2023-04-11T13:39:05.946Z,1.20
2023-04-11T13:41:51.109Z,1.13
2023-04-11T13:44:36.126Z,1.17
2023-04-11T13:47:21.425Z,1.30
2023-04-11T13:50:07.357Z,1.27
2023-04-11T13:52:52.278Z,1.20
2023-04-11T13:55:37.119Z,1.20
2023-04-11T13:58:22.204Z,1.13
2023-04-11T14:01:10.864Z,1.30
2023-04-11T14:03:56.255Z,1.03
2023-04-11T14:06:42.123Z,1.00
2023-04-11T14:09:27.625Z,1.30
2023-04-11T14:12:12.984Z,1.20
2023-04-11T14:14:57.769Z,1.20
2023-04-11T14:17:43.962Z,1.00
2023-04-11T14:20:29.265Z,1.30
2023-04-11T14:23:16.402Z,1.00
2023-04-11T14:26:01.789Z,1.02
2023-04-11T14:28:47.043Z,0.93
2023-04-11T14:31:32.277Z,1.20
2023-04-11T14:34:21.144Z,1.00
2023-04-11T14:37:06.601Z,0.95
2023-04-11T14:39:52.076Z,1.20
2023-04-11T14:42:37.800Z,1.23
2023-04-11T14:45:22.752Z,1.00
2023-04-11T14:48:08.087Z,1.10
2023-04-11T14:50:54.767Z,0.90
2023-04-11T14:53:40.333Z,1.17
2023-04-11T14:56:25.953Z,0.90
2023-04-11T14:59:11.436Z,0.90
2023-04-11T15:01:56.590Z,1.17
2023-04-11T15:04:41.811Z,1.10
2023-04-11T15:07:27.071Z,1.10
2023-04-11T15:10:13.084Z,1.00
2023-04-11T15:12:58.176Z,1.10
2023-04-11T15:15:43.215Z,0.90
2023-04-11T15:18:29.376Z,1.02
2023-04-11T15:21:14.565Z,1.10
2023-04-11T15:23:59.364Z,1.17
2023-04-11T15:26:47.622Z,0.90
2023-04-11T15:29:33.068Z,1.00
2023-04-11T15:32:18.129Z,1.15
2023-04-11T15:35:02.945Z,1.20
2023-04-11T15:37:48.203Z,1.13
2023-04-11T15:40:33.129Z,1.27
2023-04-11T15:43:18.860Z,1.00
2023-04-11T15:46:04.221Z,0.88
2023-04-11T15:48:49.242Z,0.93
2023-04-11T15:51:33.994Z,1.30
2023-04-11T15:54:19.007Z,1.13
2023-04-11T15:57:04.240Z,0.90
2023-04-11T15:59:49.072Z,0.95
2023-04-11T16:02:34.646Z,1.10
2023-04-11T16:05:20.923Z,0.90
2023-04-11T16:08:06.552Z,1.13
2023-04-11T16:10:51.423Z,0.90
2023-04-11T16:13:36.451Z,1.10
2023-04-11T16:16:21.786Z,0.90
2023-04-11T16:19:07.516Z,0.98
2023-04-11T16:21:52.740Z,1.10
2023-04-11T16:24:37.737Z,1.02
2023-04-11T16:27:23.011Z,0.98
2023-04-11T16:30:09.413Z,1.00
2023-04-11T16:32:54.761Z,0.88
2023-04-11T16:35:40.328Z,1.10
2023-04-11T16:38:25.386Z,0.90
2023-04-11T16:41:10.301Z,0.90
2023-04-11T16:43:56.092Z,0.90
2023-04-11T16:46:41.970Z,0.93
2023-04-11T16:49:27.355Z,0.90
2023-04-11T16:52:12.560Z,1.10
2023-04-11T16:54:58.096Z,1.00
2023-04-11T16:57:43.824Z,0.90
2023-04-11T17:00:29.274Z,0.95
2023-04-11T17:03:17.490Z,0.90
2023-04-11T17:06:02.750Z,0.90
2023-04-11T17:08:47.793Z,1.00
2023-04-11T17:11:33.250Z,0.88
2023-04-11T17:14:18.774Z,0.90
2023-04-11T17:17:04.347Z,0.93
2023-04-11T17:19:49.691Z,1.00
2023-04-11T17:22:36.069Z,0.82
2023-04-11T17:25:21.278Z,0.90
2023-04-11T17:28:06.309Z,0.90
2023-04-11T17:30:52.303Z,1.00
2023-04-11T17:33:37.319Z,0.98
2023-04-11T17:36:22.466Z,0.95
2023-04-11T17:39:07.744Z,0.85
2023-04-11T17:41:53.078Z,1.00
2023-04-11T17:44:38.048Z,0.80
2023-04-11T17:47:23.339Z,0.70
2023-04-11T17:50:10.130Z,0.98
2023-04-11T17:52:56.331Z,1.00
2023-04-11T17:55:41.821Z,0.90
2023-04-11T17:58:27.538Z,0.97
2023-04-11T18:01:12.843Z,0.85
2023-04-11T18:04:00.046Z,0.80
2023-04-11T18:06:48.405Z,0.88
2023-04-11T18:09:33.868Z,1.10
2023-04-11T18:12:19.858Z,1.07
2023-04-11T18:15:14.960Z,0.80
2023-04-11T18:18:00.142Z,1.02
2023-04-11T18:20:45.396Z,0.93
2023-04-11T18:23:31.119Z,1.10
2023-04-11T18:26:16.615Z,1.00
2023-04-11T18:29:01.884Z,0.90
2023-04-11T18:31:47.246Z,1.00
2023-04-11T18:34:32.568Z,1.00
2023-04-11T18:37:18.089Z,0.90
2023-04-11T18:40:16.664Z,1.00
2023-04-11T18:43:02.570Z,0.90
2023-04-11T18:45:49.066Z,0.93
2023-04-11T18:48:34.660Z,0.90
2023-04-11T18:51:20.541Z,1.00
2023-04-11T18:54:05.793Z,0.80
2023-04-11T18:56:53.742Z,0.80
2023-04-11T18:59:43.415Z,0.70
2023-04-11T19:02:29.802Z,1.00
2023-04-11T19:05:15.907Z,0.90
2023-04-11T19:08:01.666Z,0.90
2023-04-11T19:10:46.651Z,0.70
2023-04-11T19:13:31.761Z,0.80
2023-04-11T19:16:17.158Z,0.80
2023-04-11T19:19:02.529Z,0.90
2023-04-11T19:21:48.755Z,1.00
2023-04-11T19:24:34.712Z,0.82
2023-04-11T19:27:21.512Z,0.80
2023-04-11T19:30:08.489Z,0.90
2023-04-11T19:32:54.025Z,0.80
2023-04-11T19:35:40.789Z,0.80
2023-04-11T19:38:26.302Z,0.73
2023-04-11T19:41:16.090Z,0.90
2023-04-11T19:44:01.177Z,0.90
2023-04-11T19:46:46.662Z,0.80
2023-04-11T19:49:32.058Z,0.80
2023-04-11T19:52:17.917Z,0.90
2023-04-11T19:55:03.594Z,0.65
2023-04-11T19:57:48.827Z,0.70
2023-04-11T20:00:36.122Z,0.70
2023-04-11T20:03:21.769Z,0.70
2023-04-11T20:06:07.452Z,0.80
2023-04-11T20:08:53.588Z,0.60
2023-04-11T20:11:39.190Z,0.90
2023-04-11T20:14:24.474Z,0.88
2023-04-11T20:17:09.578Z,0.90
2023-04-11T20:19:55.615Z,0.88
2023-04-11T20:22:40.803Z,0.80
2023-04-11T20:25:26.138Z,0.80
2023-04-11T20:28:11.264Z,0.82
2023-04-11T20:30:56.797Z,0.80
2023-04-11T20:33:44.090Z,0.70
2023-04-11T20:36:29.416Z,0.80
2023-04-11T20:39:14.300Z,0.50
2023-04-11T20:42:01.301Z,0.80
2023-04-11T20:44:47.254Z,0.90
2023-04-11T20:47:37.712Z,0.80
2023-04-11T20:50:26.192Z,0.65
2023-04-11T20:53:11.460Z,0.60
2023-04-11T20:55:56.284Z,0.70
2023-04-11T20:58:41.411Z,0.83
2023-04-11T21:01:26.581Z,0.70
2023-04-11T21:04:13.046Z,0.63
2023-04-11T21:06:58.573Z,0.60
2023-04-11T21:09:43.885Z,0.70
2023-04-11T21:12:29.212Z,0.80
2023-04-11T21:15:14.009Z,0.70
2023-04-11T21:17:59.002Z,0.75
2023-04-11T21:20:44.233Z,0.70
2023-04-11T21:23:29.165Z,0.70
2023-04-11T21:26:14.564Z,0.77
2023-04-11T21:28:59.979Z,0.65
2023-04-11T21:31:45.572Z,0.80
2023-04-11T21:34:31.091Z,0.70
2023-04-11T21:37:16.223Z,0.70
2023-04-11T21:40:01.712Z,0.70
2023-04-11T21:42:46.909Z,0.63
2023-04-11T21:45:32.287Z,0.70
2023-04-11T21:48:17.626Z,0.80
2023-04-11T21:51:03.659Z,0.70
2023-04-11T21:53:49.023Z,0.73
2023-04-11T21:56:34.452Z,0.70
2023-04-11T21:59:21.079Z,0.90
2023-04-11T22:02:06.656Z,0.70
2023-04-11T22:05:04.824Z,0.80
2023-04-11T22:07:51.216Z,0.70
2023-04-11T22:10:46.609Z,0.85
2023-04-11T22:13:32.707Z,0.68
2023-04-11T22:16:18.754Z,0.77
2023-04-11T22:19:04.133Z,0.68
2023-04-11T22:21:55.717Z,0.70
2023-04-11T22:24:40.833Z,0.70
2023-04-11T22:27:29.458Z,0.60
2023-04-11T22:30:14.716Z,0.63
2023-04-11T22:33:01.880Z,0.50
2023-04-11T22:35:47.676Z,0.80
2023-04-11T22:38:33.463Z,0.80
2023-04-11T22:41:18.910Z,0.75
2023-04-11T22:44:04.512Z,0.70
2023-04-11T22:47:21.735Z,0.60
2023-04-11T22:50:07.033Z,0.80
2023-04-11T22:52:52.013Z,0.60
2023-04-11T22:55:37.001Z,0.57
2023-04-11T22:58:21.896Z,0.70
2023-04-11T23:48:28.629Z,0.73
2023-04-11T23:51:14.266Z,0.70
2023-04-11T23:54:00.061Z,0.60
2023-04-11T23:56:45.589Z,0.60
2023-04-11T23:59:33.518Z,0.65
